• Join FlightAware (Why Join?)
  • Login
  • US Flag 
10:30AM EDT


 

Airport Tracker/Info


-or-


 

Live Flight TrackerFlight Track Log ✈ DAL3606 ✈ 01-Aug-2013 ✈ KMSP - KCWA

Flight Track Log - Related Links

Times and Time Zones

All times are in EDT time to prevent confusion due to time zone crossing. See the DAL3606 flight status page for this flight to view local times or setup timezone preferences in your user account.

Time Position Orientation Groundspeed Altitude Reporting Facility
EDT Latitude Longitude Course Direction KTS MPH feet Rate Location/Type
07:44PM 44.9167 -93.2500 65° Northeast 170 196 2,200  Level Minneapolis TRACON
07:45PM 44.9550 -93.2533 356° North 207 238 3,100 1,500 Climbing Minneapolis Center
07:46PM 45.0069 -93.1914 40° Northeast 264 304 5,000 2,280 Climbing Minneapolis Center
07:47PM 45.0118 -92.7018 69° East  Level FlightAware Approximate
07:47PM 45.0408 -93.0889 65° Northeast 285 328 7,900  Level Minneapolis Center
07:48PM 45.0504 -92.5739 66° East  Level FlightAware Approximate
07:48PM 45.0756 -92.9822 65° Northeast 296 341 10,200  Level Minneapolis Center
07:49PM 45.0901 -92.4465 65° Northeast  Level FlightAware Approximate
07:49PM 45.1156 -92.8608 65° Northeast 341 392 11,300  Level Minneapolis Center
07:50PM 45.1592 -92.7292 65° Northeast 366 421 13,200 1,620 Climbing Minneapolis Center
07:51PM 45.2036 -92.5944 65° Northeast 378 435 14,700 1,380 Climbing Minneapolis Center
07:52PM 45.2100 -92.4108 87° East 407 468 16,100 1,020 Climbing Minneapolis Center
07:53PM 45.1947 -92.2803 99° East 417 480 16,900 420 Climbing Minneapolis Center
07:54PM 45.1683 -92.0719 100° East 449 517 17,000  Climbing Minneapolis Center
07:55PM 45.1450 -91.8936 100° East 461 531 17,000  Level Minneapolis Center
07:56PM 45.1269 -91.7158 98° East 458 527 17,000  Level Minneapolis Center
07:57PM 45.1267 -91.4994 90° East 460 529 17,000  Level Minneapolis Center
07:58PM 45.1336 -91.3183 87° East 462 532 17,000  Level Minneapolis Center
07:59PM 45.1064 -91.1425 102° East 465 535 17,000  Level Minneapolis Center
08:00PM 45.0597 -90.9322 107° East 468 539 17,000  Level Minneapolis Center
08:02PM 45.0228 -90.7514 106° East 464 534 17,000  Level Minneapolis Center
08:03PM 44.9839 -90.5761 107° East 468 539 17,000 -900 Level Minneapolis Center
08:04PM 44.9419 -90.3919 108° East 470 541 15,200 -2,400 Descending Minneapolis Center
08:05PM 44.9056 -90.2267 107° East 424 488 12,100 -2,520 Descending Minneapolis Center
08:06PM 44.8744 -90.0883 108° East 385 443 10,000 -2,220 Descending Minneapolis Center
08:07PM 44.8475 -89.9731 108° East 302 348 7,600 -2,400 Descending Minneapolis Center
08:08PM 44.8217 -89.8592 108° East 291 335 5,100 -2,160 Descending Minneapolis Center
08:09PM 44.7728 -89.7714 128° Southeast 274 315 3,200 -1,200 Descending Minneapolis Center
08:10PM 44.7089 -89.7456 164° South 228 262 2,700 -480 Descending Minneapolis Center
08:11PM 44.7078 -89.6800 91° East 175 201 2,300 -540 Descending Minneapolis Center
08:12PM 44.7469 -89.6683 12° North 147 169 1,600 -480 Descending Minneapolis Center
08:13PM 44.7853 -89.6792 349° North 145 167 1,400 -240 Descending Minneapolis Center